Brocton, New York
Current Conditions -  °F | °C
As of 8:53 AM on Friday 31 Oct 2014 (Local Time) from KDKK Reporting Station
Broken Clouds Broken Clouds  
Wind Chill: 42°   Ceiling: 9500
Heat Index: 45°   Visibility: 10mi
Dew Point: 37°   Wind: 6mph
Humidity: 74%   Direction: 190°S
Pressure: 29.95"   Gusts: NA
Location:  42.39°N, 79.44°W
Report Text: KDKK 311253Z AUTO 19005KT 10SM FEW070 BKN095 07/03 A2995 RMK AO2 SLP145 T00720028
Loading
Personal Weather Stations






























Interactive Weather Map
Tropical Storm Tracking
New forecast layout! Learn more

10-Day Weather Forecast

Advertisements
Track Severe Weather on mobile